sensor_id;sensor_type;location;lat;lon;timestamp;pressure;altitude;pressure_sealevel;temperature;humidity
19600;BME280;9947;57.722;12.012;2023-01-30T00:02:15;98736.34;;;4.41;100.00
19600;BME280;9947;57.722;12.012;2023-01-30T00:04:48;98723.88;;;4.30;100.00
19600;BME280;9947;57.722;12.012;2023-01-30T00:07:22;98736.09;;;4.23;100.00
19600;BME280;9947;57.722;12.012;2023-01-30T00:09:49;98716.75;;;4.19;100.00
19600;BME280;9947;57.722;12.012;2023-01-30T00:12:23;98720.31;;;4.09;100.00
19600;BME280;9947;57.722;12.012;2023-01-30T00:14:50;98721.66;;;4.03;100.00
19600;BME280;9947;57.722;12.012;2023-01-30T00:17:30;98691.03;;;4.07;100.00
19600;BME280;9947;57.722;12.012;2023-01-30T00:19:59;98701.59;;;4.09;100.00
19600;BME280;9947;57.722;12.012;2023-01-30T00:22:34;98709.75;;;4.07;100.00
19600;BME280;9947;57.722;12.012;2023-01-30T00:25:01;98699.03;;;4.07;100.00
19600;BME280;9947;57.722;12.012;2023-01-30T00:27:35;98698.00;;;3.98;100.00
19600;BME280;9947;57.722;12.012;2023-01-30T00:30:02;98696.28;;;3.97;100.00
19600;BME280;9947;57.722;12.012;2023-01-30T00:32:36;98697.41;;;3.95;100.00
19600;BME280;9947;57.722;12.012;2023-01-30T00:35:04;98702.03;;;3.93;100.00
19600;BME280;9947;57.722;12.012;2023-01-30T00:37:39;98721.19;;;3.98;100.00
19600;BME280;9947;57.722;12.012;2023-01-30T00:40:06;98709.19;;;3.92;100.00
19600;BME280;9947;57.722;12.012;2023-01-30T00:42:40;98695.19;;;4.00;100.00
19600;BME280;9947;57.722;12.012;2023-01-30T00:45:24;98708.81;;;3.97;100.00
19600;BME280;9947;57.722;12.012;2023-01-30T00:48:16;98703.13;;;3.90;100.00
19600;BME280;9947;57.722;12.012;2023-01-30T00:50:49;98700.44;;;3.90;100.00
19600;BME280;9947;57.722;12.012;2023-01-30T00:53:17;98696.81;;;3.91;100.00
19600;BME280;9947;57.722;12.012;2023-01-30T00:55:51;98710.63;;;3.96;100.00
19600;BME280;9947;57.722;12.012;2023-01-30T00:58:32;98713.69;;;3.92;100.00
19600;BME280;9947;57.722;12.012;2023-01-30T01:01:05;98714.41;;;3.83;100.00
19600;BME280;9947;57.722;12.012;2023-01-30T01:03:32;98707.84;;;3.87;100.00
19600;BME280;9947;57.722;12.012;2023-01-30T01:06:05;98713.69;;;3.92;100.00
19600;BME280;9947;57.722;12.012;2023-01-30T01:08:33;98708.22;;;3.82;100.00
19600;BME280;9947;57.722;12.012;2023-01-30T01:11:07;98704.09;;;3.78;100.00
19600;BME280;9947;57.722;12.012;2023-01-30T01:13:34;98704.06;;;3.89;100.00
19600;BME280;9947;57.722;12.012;2023-01-30T01:16:07;98702.25;;;3.90;100.00
19600;BME280;9947;57.722;12.012;2023-01-30T01:18:40;98699.09;;;3.85;100.00
19600;BME280;9947;57.722;12.012;2023-01-30T01:21:15;98698.25;;;3.84;100.00
19600;BME280;9947;57.722;12.012;2023-01-30T01:23:58;98681.16;;;3.76;100.00
19600;BME280;9947;57.722;12.012;2023-01-30T01:26:25;98686.88;;;3.71;100.00
19600;BME280;9947;57.722;12.012;2023-01-30T01:28:58;98691.75;;;3.66;100.00
19600;BME280;9947;57.722;12.012;2023-01-30T01:31:32;98697.94;;;3.66;100.00
19600;BME280;9947;57.722;12.012;2023-01-30T01:33:59;98706.44;;;3.60;100.00
19600;BME280;9947;57.722;12.012;2023-01-30T01:36:33;98691.88;;;3.64;100.00
19600;BME280;9947;57.722;12.012;2023-01-30T01:39:08;98689.19;;;3.64;100.00
19600;BME280;9947;57.722;12.012;2023-01-30T01:41:35;98691.13;;;3.62;100.00
19600;BME280;9947;57.722;12.012;2023-01-30T01:44:15;98677.41;;;3.67;100.00
19600;BME280;9947;57.722;12.012;2023-01-30T01:46:47;98671.44;;;3.63;100.00
19600;BME280;9947;57.722;12.012;2023-01-30T01:49:32;98677.41;;;3.67;100.00
19600;BME280;9947;57.722;12.012;2023-01-30T01:52:09;98684.31;;;3.58;100.00
19600;BME280;9947;57.722;12.012;2023-01-30T01:54:43;98679.09;;;3.68;100.00
19600;BME280;9947;57.722;12.012;2023-01-30T01:57:20;98685.19;;;3.59;100.00
19600;BME280;9947;57.722;12.012;2023-01-30T01:59:59;98673.66;;;3.58;100.00
19600;BME280;9947;57.722;12.012;2023-01-30T02:02:36;98673.03;;;3.55;100.00
19600;BME280;9947;57.722;12.012;2023-01-30T02:05:11;98673.78;;;3.46;100.00
19600;BME280;9947;57.722;12.012;2023-01-30T02:07:50;98662.50;;;3.42;100.00
19600;BME280;9947;57.722;12.012;2023-01-30T02:10:21;98653.66;;;3.42;100.00
19600;BME280;9947;57.722;12.012;2023-01-30T02:12:57;98638.09;;;3.47;100.00
19600;BME280;9947;57.722;12.012;2023-01-30T02:15:24;98643.19;;;3.50;100.00
19600;BME280;9947;57.722;12.012;2023-01-30T02:17:57;98640.66;;;3.48;100.00
19600;BME280;9947;57.722;12.012;2023-01-30T02:20:30;98637.22;;;3.57;100.00
19600;BME280;9947;57.722;12.012;2023-01-30T02:30:01;98637.09;;;3.70;100.00
19600;BME280;9947;57.722;12.012;2023-01-30T02:32:44;98640.22;;;3.64;100.00
19600;BME280;9947;57.722;12.012;2023-01-30T02:35:28;98652.16;;;3.60;100.00
19600;BME280;9947;57.722;12.012;2023-01-30T02:38:15;98643.88;;;3.63;100.00
19600;BME280;9947;57.722;12.012;2023-01-30T02:41:00;98642.06;;;3.63;100.00
19600;BME280;9947;57.722;12.012;2023-01-30T02:43:45;98642.91;;;3.64;100.00
19600;BME280;9947;57.722;12.012;2023-01-30T02:46:21;98638.41;;;3.76;100.00
19600;BME280;9947;57.722;12.012;2023-01-30T02:49:01;98635.13;;;3.72;100.00
19600;BME280;9947;57.722;12.012;2023-01-30T02:51:34;98628.28;;;3.79;100.00
19600;BME280;9947;57.722;12.012;2023-01-30T02:54:10;98626.22;;;3.83;100.00
19600;BME280;9947;57.722;12.012;2023-01-30T02:56:46;98630.94;;;3.90;100.00
19600;BME280;9947;57.722;12.012;2023-01-30T02:59:18;98632.03;;;3.88;100.00
19600;BME280;9947;57.722;12.012;2023-01-30T03:02:25;98623.16;;;3.87;100.00
19600;BME280;9947;57.722;12.012;2023-01-30T03:05:19;98625.63;;;3.79;100.00
19600;BME280;9947;57.722;12.012;2023-01-30T03:08:06;98638.84;;;3.92;100.00
19600;BME280;9947;57.722;12.012;2023-01-30T03:10:50;98621.69;;;3.94;100.00
19600;BME280;9947;57.722;12.012;2023-01-30T03:13:43;98623.38;;;3.95;100.00
19600;BME280;9947;57.722;12.012;2023-01-30T03:16:25;98632.97;;;3.98;100.00
19600;BME280;9947;57.722;12.012;2023-01-30T03:19:02;98626.31;;;3.92;100.00
19600;BME280;9947;57.722;12.012;2023-01-30T03:21:32;98618.53;;;3.89;100.00
19600;BME280;9947;57.722;12.012;2023-01-30T03:24:06;98625.25;;;3.84;100.00
19600;BME280;9947;57.722;12.012;2023-01-30T03:26:45;98618.63;;;3.67;100.00
19600;BME280;9947;57.722;12.012;2023-01-30T03:29:13;98623.84;;;3.68;100.00
19600;BME280;9947;57.722;12.012;2023-01-30T03:31:47;98622.22;;;3.77;100.00
19600;BME280;9947;57.722;12.012;2023-01-30T03:34:20;98602.81;;;3.75;100.00
19600;BME280;9947;57.722;12.012;2023-01-30T03:36:49;98594.59;;;3.67;100.00
19600;BME280;9947;57.722;12.012;2023-01-30T03:39:23;98590.09;;;3.67;100.00
19600;BME280;9947;57.722;12.012;2023-01-30T03:41:57;98610.50;;;3.68;100.00
19600;BME280;9947;57.722;12.012;2023-01-30T03:44:24;98611.22;;;3.70;100.00
19600;BME280;9947;57.722;12.012;2023-01-30T03:46:59;98607.44;;;3.73;100.00
19600;BME280;9947;57.722;12.012;2023-01-30T03:49:25;98606.91;;;3.79;100.00
19600;BME280;9947;57.722;12.012;2023-01-30T03:52:08;98603.53;;;3.77;100.00
19600;BME280;9947;57.722;12.012;2023-01-30T03:54:43;98595.44;;;3.88;100.00
19600;BME280;9947;57.722;12.012;2023-01-30T03:57:10;98598.63;;;3.93;100.00
19600;BME280;9947;57.722;12.012;2023-01-30T03:59:43;98586.94;;;3.94;100.00
19600;BME280;9947;57.722;12.012;2023-01-30T04:02:10;98588.78;;;3.94;100.00
19600;BME280;9947;57.722;12.012;2023-01-30T04:04:46;98572.72;;;3.94;100.00
19600;BME280;9947;57.722;12.012;2023-01-30T04:07:15;98561.38;;;4.01;100.00
19600;BME280;9947;57.722;12.012;2023-01-30T04:09:48;98559.28;;;4.05;100.00
19600;BME280;9947;57.722;12.012;2023-01-30T04:12:28;98549.13;;;3.99;100.00
19600;BME280;9947;57.722;12.012;2023-01-30T04:14:55;98554.16;;;3.92;100.00
19600;BME280;9947;57.722;12.012;2023-01-30T04:17:28;98542.91;;;3.78;100.00
19600;BME280;9947;57.722;12.012;2023-01-30T04:19:58;98522.56;;;3.65;100.00
19600;BME280;9947;57.722;12.012;2023-01-30T04:22:33;98531.91;;;3.60;100.00
19600;BME280;9947;57.722;12.012;2023-01-30T04:25:08;98520.78;;;3.55;100.00
19600;BME280;9947;57.722;12.012;2023-01-30T04:27:35;98517.78;;;3.37;100.00
19600;BME280;9947;57.722;12.012;2023-01-30T04:30:09;98518.78;;;3.36;100.00
19600;BME280;9947;57.722;12.012;2023-01-30T04:32:36;98517.06;;;3.35;100.00
19600;BME280;9947;57.722;12.012;2023-01-30T04:35:10;98517.59;;;3.29;100.00
19600;BME280;9947;57.722;12.012;2023-01-30T04:37:45;98515.56;;;3.21;100.00
19600;BME280;9947;57.722;12.012;2023-01-30T04:40:12;98523.66;;;3.31;100.00
19600;BME280;9947;57.722;12.012;2023-01-30T04:42:38;98541.63;;;3.29;100.00
19600;BME280;9947;57.722;12.012;2023-01-30T04:45:12;98534.47;;;3.29;100.00
19600;BME280;9947;57.722;12.012;2023-01-30T04:47:39;98504.81;;;3.32;100.00
19600;BME280;9947;57.722;12.012;2023-01-30T04:50:15;98507.72;;;3.40;100.00
19600;BME280;9947;57.722;12.012;2023-01-30T04:52:50;98508.44;;;3.43;100.00
19600;BME280;9947;57.722;12.012;2023-01-30T04:55:24;98521.81;;;3.43;100.00
19600;BME280;9947;57.722;12.012;2023-01-30T04:57:57;98511.47;;;3.38;100.00
19600;BME280;9947;57.722;12.012;2023-01-30T05:00:25;98501.44;;;3.30;100.00
19600;BME280;9947;57.722;12.012;2023-01-30T05:02:58;98518.09;;;3.23;100.00
19600;BME280;9947;57.722;12.012;2023-01-30T05:05:25;98503.47;;;3.38;100.00
19600;BME280;9947;57.722;12.012;2023-01-30T05:08:01;98505.53;;;3.46;100.00
19600;BME280;9947;57.722;12.012;2023-01-30T05:10:35;98493.34;;;3.53;100.00
19600;BME280;9947;57.722;12.012;2023-01-30T05:13:03;98484.41;;;3.43;100.00
19600;BME280;9947;57.722;12.012;2023-01-30T05:15:38;98499.06;;;3.48;100.00
19600;BME280;9947;57.722;12.012;2023-01-30T05:18:05;98490.94;;;3.50;100.00
19600;BME280;9947;57.722;12.012;2023-01-30T05:20:38;98487.22;;;3.62;100.00
19600;BME280;9947;57.722;12.012;2023-01-30T05:23:06;98484.91;;;3.68;100.00
19600;BME280;9947;57.722;12.012;2023-01-30T05:25:40;98476.16;;;3.66;100.00
19600;BME280;9947;57.722;12.012;2023-01-30T05:28:14;98478.59;;;3.69;100.00
19600;BME280;9947;57.722;12.012;2023-01-30T05:30:47;98470.88;;;3.55;100.00
19600;BME280;9947;57.722;12.012;2023-01-30T05:33:14;98477.66;;;3.59;100.00
19600;BME280;9947;57.722;12.012;2023-01-30T05:35:47;98472.81;;;3.53;100.00
19600;BME280;9947;57.722;12.012;2023-01-30T05:38:23;98474.38;;;3.56;100.00
19600;BME280;9947;57.722;12.012;2023-01-30T05:40:57;98481.09;;;3.50;100.00
19600;BME280;9947;57.722;12.012;2023-01-30T05:43:25;98488.47;;;3.58;100.00
19600;BME280;9947;57.722;12.012;2023-01-30T05:46:00;98467.22;;;3.56;100.00
19600;BME280;9947;57.722;12.012;2023-01-30T05:48:33;98479.91;;;3.64;100.00
19600;BME280;9947;57.722;12.012;2023-01-30T05:51:14;98485.75;;;3.69;100.00
19600;BME280;9947;57.722;12.012;2023-01-30T05:53:50;98485.03;;;3.67;100.00
19600;BME280;9947;57.722;12.012;2023-01-30T05:56:20;98485.25;;;3.64;100.00
19600;BME280;9947;57.722;12.012;2023-01-30T05:58:55;98484.06;;;3.68;100.00
19600;BME280;9947;57.722;12.012;2023-01-30T06:01:22;98474.56;;;3.64;100.00
19600;BME280;9947;57.722;12.012;2023-01-30T06:03:56;98475.56;;;3.63;100.00
19600;BME280;9947;57.722;12.012;2023-01-30T06:06:29;98456.97;;;3.61;100.00
19600;BME280;9947;57.722;12.012;2023-01-30T06:09:05;98473.50;;;3.66;100.00
19600;BME280;9947;57.722;12.012;2023-01-30T06:11:38;98464.16;;;3.61;100.00
19600;BME280;9947;57.722;12.012;2023-01-30T06:14:05;98473.16;;;3.60;100.00
19600;BME280;9947;57.722;12.012;2023-01-30T06:16:39;98473.41;;;3.57;100.00
19600;BME280;9947;57.722;12.012;2023-01-30T06:19:12;98477.66;;;3.59;100.00
19600;BME280;9947;57.722;12.012;2023-01-30T06:21:45;98476.78;;;3.59;100.00
19600;BME280;9947;57.722;12.012;2023-01-30T06:24:13;98462.81;;;3.66;100.00
19600;BME280;9947;57.722;12.012;2023-01-30T06:26:47;98463.25;;;3.71;100.00
19600;BME280;9947;57.722;12.012;2023-01-30T06:29:27;98468.16;;;3.66;100.00
19600;BME280;9947;57.722;12.012;2023-01-30T06:32:00;98459.66;;;3.61;100.00
19600;BME280;9947;57.722;12.012;2023-01-30T06:34:27;98460.50;;;3.62;100.00
19600;BME280;9947;57.722;12.012;2023-01-30T06:37:01;98455.03;;;3.63;100.00
19600;BME280;9947;57.722;12.012;2023-01-30T06:39:37;98471.41;;;3.70;100.00
19600;BME280;9947;57.722;12.012;2023-01-30T06:42:03;98459.44;;;3.64;100.00
19600;BME280;9947;57.722;12.012;2023-01-30T06:44:37;98467.63;;;3.72;100.00
19600;BME280;9947;57.722;12.012;2023-01-30T06:47:04;98450.50;;;3.75;100.00
19600;BME280;9947;57.722;12.012;2023-01-30T06:49:37;98465.84;;;3.83;100.00
19600;BME280;9947;57.722;12.012;2023-01-30T06:52:10;98464.88;;;3.84;100.00
19600;BME280;9947;57.722;12.012;2023-01-30T06:54:39;98477.13;;;3.86;100.00
19600;BME280;9947;57.722;12.012;2023-01-30T06:57:12;98464.88;;;3.84;100.00
19600;BME280;9947;57.722;12.012;2023-01-30T06:59:39;98462.34;;;3.82;100.00
19600;BME280;9947;57.722;12.012;2023-01-30T07:02:12;98465.72;;;3.84;100.00
19600;BME280;9947;57.722;12.012;2023-01-30T07:04:39;98454.91;;;3.86;100.00
19600;BME280;9947;57.722;12.012;2023-01-30T07:07:13;98456.72;;;3.85;100.00
19600;BME280;9947;57.722;12.012;2023-01-30T07:09:41;98454.06;;;3.85;100.00
19600;BME280;9947;57.722;12.012;2023-01-30T07:12:15;98443.63;;;3.82;100.00
19600;BME280;9947;57.722;12.012;2023-01-30T07:14:49;98447.72;;;3.86;100.00
19600;BME280;9947;57.722;12.012;2023-01-30T07:17:22;98455.88;;;3.85;100.00
19600;BME280;9947;57.722;12.012;2023-01-30T07:19:49;98457.00;;;3.82;100.00
19600;BME280;9947;57.722;12.012;2023-01-30T07:22:26;98462.34;;;3.82;100.00
19600;BME280;9947;57.722;12.012;2023-01-30T07:25:08;98458.63;;;3.74;100.00
19600;BME280;9947;57.722;12.012;2023-01-30T07:27:35;98459.88;;;3.69;100.00
19600;BME280;9947;57.722;12.012;2023-01-30T07:30:09;98460.50;;;3.62;100.00
19600;BME280;9947;57.722;12.012;2023-01-30T07:32:43;98485.53;;;3.61;100.00
19600;BME280;9947;57.722;12.012;2023-01-30T07:35:10;98459.91;;;3.58;100.00
19600;BME280;9947;57.722;12.012;2023-01-30T07:37:45;98467.03;;;3.48;100.00
19600;BME280;9947;57.722;12.012;2023-01-30T07:40:20;98454.91;;;3.44;100.00
19600;BME280;9947;57.722;12.012;2023-01-30T07:42:55;98450.66;;;3.42;100.00
19600;BME280;9947;57.722;12.012;2023-01-30T07:45:30;98443.41;;;3.32;100.00
19600;BME280;9947;57.722;12.012;2023-01-30T07:48:00;98458.44;;;3.33;100.00
19600;BME280;9947;57.722;12.012;2023-01-30T07:50:33;98462.81;;;3.34;100.00
19600;BME280;9947;57.722;12.012;2023-01-30T07:53:08;98464.28;;;3.38;100.00
19600;BME280;9947;57.722;12.012;2023-01-30T07:55:44;98463.91;;;3.43;100.00
19600;BME280;9947;57.722;12.012;2023-01-30T07:58:17;98465.97;;;3.39;100.00
19600;BME280;9947;57.722;12.012;2023-01-30T08:00:53;98460.38;;;3.43;100.00
19600;BME280;9947;57.722;12.012;2023-01-30T08:03:27;98467.66;;;3.40;100.00
19600;BME280;9947;57.722;12.012;2023-01-30T08:06:00;98461.34;;;3.42;100.00
19600;BME280;9947;57.722;12.012;2023-01-30T08:08:27;98469.38;;;3.42;100.00
19600;BME280;9947;57.722;12.012;2023-01-30T08:11:05;98463.06;;;3.43;100.00
19600;BME280;9947;57.722;12.012;2023-01-30T08:13:38;98468.59;;;3.51;100.00
19600;BME280;9947;57.722;12.012;2023-01-30T08:16:12;98469.31;;;3.53;100.00
19600;BME280;9947;57.722;12.012;2023-01-30T08:18:39;98466.38;;;3.56;100.00
19600;BME280;9947;57.722;12.012;2023-01-30T08:21:12;98468.91;;;3.57;100.00
19600;BME280;9947;57.722;12.012;2023-01-30T08:23:52;98468.78;;;3.59;100.00
19600;BME280;9947;57.722;12.012;2023-01-30T08:26:22;98477.16;;;3.65;100.00
19600;BME280;9947;57.722;12.012;2023-01-30T08:28:56;98463.44;;;3.59;100.00
19600;BME280;9947;57.722;12.012;2023-01-30T08:31:29;98467.53;;;3.63;100.00
19600;BME280;9947;57.722;12.012;2023-01-30T08:33:56;98470.75;;;3.78;100.00
19600;BME280;9947;57.722;12.012;2023-01-30T08:36:29;98477.25;;;3.85;100.00
19600;BME280;9947;57.722;12.012;2023-01-30T08:39:02;98477.47;;;3.93;100.00
19600;BME280;9947;57.722;12.012;2023-01-30T08:41:37;98483.59;;;4.05;100.00
19600;BME280;9947;57.722;12.012;2023-01-30T08:44:11;98489.84;;;4.15;100.00
19600;BME280;9947;57.722;12.012;2023-01-30T08:46:45;98492.84;;;4.21;100.00
19600;BME280;9947;57.722;12.012;2023-01-30T08:49:12;98497.25;;;4.32;100.00
19600;BME280;9947;57.722;12.012;2023-01-30T08:51:45;98486.88;;;4.39;100.00
19600;BME280;9947;57.722;12.012;2023-01-30T08:54:12;98488.56;;;4.40;100.00
19600;BME280;9947;57.722;12.012;2023-01-30T08:56:47;98486.72;;;4.40;100.00
19600;BME280;9947;57.722;12.012;2023-01-30T08:59:14;98489.16;;;4.43;100.00
19600;BME280;9947;57.722;12.012;2023-01-30T09:01:47;98488.47;;;4.51;100.00
19600;BME280;9947;57.722;12.012;2023-01-30T09:04:14;98496.50;;;4.51;100.00
19600;BME280;9947;57.722;12.012;2023-01-30T09:06:48;98502.72;;;4.51;100.00
19600;BME280;9947;57.722;12.012;2023-01-30T09:09:28;98500.16;;;4.50;100.00
19600;BME280;9947;57.722;12.012;2023-01-30T09:12:03;98510.03;;;4.49;100.00
19600;BME280;9947;57.722;12.012;2023-01-30T09:14:30;98509.31;;;4.47;100.00
19600;BME280;9947;57.722;12.012;2023-01-30T09:17:03;98508.97;;;4.41;100.00
19600;BME280;9947;57.722;12.012;2023-01-30T09:19:30;98501.50;;;4.34;100.00
19600;BME280;9947;57.722;12.012;2023-01-30T09:22:03;98509.91;;;4.30;100.00
19600;BME280;9947;57.722;12.012;2023-01-30T09:24:32;98506.09;;;4.23;100.00
19600;BME280;9947;57.722;12.012;2023-01-30T09:27:07;98496.09;;;4.25;100.00
19600;BME280;9947;57.722;12.012;2023-01-30T09:29:34;98492.72;;;4.23;100.00
19600;BME280;9947;57.722;12.012;2023-01-30T09:32:07;98502.75;;;4.30;100.00
19600;BME280;9947;57.722;12.012;2023-01-30T09:34:34;98513.25;;;4.43;100.00
19600;BME280;9947;57.722;12.012;2023-01-30T09:37:08;98510.56;;;4.43;100.00
19600;BME280;9947;57.722;12.012;2023-01-30T09:39:35;98507.06;;;4.52;100.00
19600;BME280;9947;57.722;12.012;2023-01-30T09:42:29;98515.38;;;4.49;100.00
19600;BME280;9947;57.722;12.012;2023-01-30T09:48:05;98516.22;;;4.50;100.00
19600;BME280;9947;57.722;12.012;2023-01-30T09:50:52;98504.22;;;4.44;100.00
19600;BME280;9947;57.722;12.012;2023-01-30T09:53:40;98499.53;;;4.37;100.00
19600;BME280;9947;57.722;12.012;2023-01-30T09:56:16;98483.63;;;4.35;100.00
19600;BME280;9947;57.722;12.012;2023-01-30T09:58:48;98506.97;;;4.33;100.00
19600;BME280;9947;57.722;12.012;2023-01-30T10:01:29;98507.41;;;4.38;100.00
19600;BME280;9947;57.722;12.012;2023-01-30T10:04:12;98511.34;;;4.34;100.00
19600;BME280;9947;57.722;12.012;2023-01-30T10:06:55;98522.31;;;4.31;100.00
19600;BME280;9947;57.722;12.012;2023-01-30T10:09:39;98521.16;;;4.24;100.00
19600;BME280;9947;57.722;12.012;2023-01-30T10:12:25;98532.38;;;4.18;100.00
19600;BME280;9947;57.722;12.012;2023-01-30T10:15:21;98548.44;;;4.18;100.00
19600;BME280;9947;57.722;12.012;2023-01-30T10:18:26;98539.16;;;4.22;100.00
19600;BME280;9947;57.722;12.012;2023-01-30T10:21:12;98545.94;;;4.26;100.00
19600;BME280;9947;57.722;12.012;2023-01-30T10:24:07;98533.16;;;4.29;100.00
19600;BME280;9947;57.722;12.012;2023-01-30T10:26:45;98525.97;;;4.30;100.00
19600;BME280;9947;57.722;12.012;2023-01-30T10:29:15;98520.88;;;4.27;100.00
19600;BME280;9947;57.722;12.012;2023-01-30T10:31:55;98526.22;;;4.27;100.00
19600;BME280;9947;57.722;12.012;2023-01-30T10:34:27;98542.00;;;4.30;100.00
19600;BME280;9947;57.722;12.012;2023-01-30T10:37:05;98543.84;;;4.29;100.00
19600;BME280;9947;57.722;12.012;2023-01-30T10:39:46;98547.09;;;4.33;100.00
19600;BME280;9947;57.722;12.012;2023-01-30T10:42:26;98557.78;;;4.33;100.00
19600;BME280;9947;57.722;12.012;2023-01-30T10:45:09;98568.81;;;4.40;100.00
19600;BME280;9947;57.722;12.012;2023-01-30T10:47:47;98573.31;;;4.39;100.00
19600;BME280;9947;57.722;12.012;2023-01-30T10:50:30;98572.31;;;4.40;100.00
19600;BME280;9947;57.722;12.012;2023-01-30T10:53:05;98585.34;;;4.45;100.00
19600;BME280;9947;57.722;12.012;2023-01-30T10:55:47;98576.47;;;4.44;100.00
19600;BME280;9947;57.722;12.012;2023-01-30T10:58:18;98595.63;;;4.49;100.00
19600;BME280;9947;57.722;12.012;2023-01-30T11:00:57;98594.38;;;4.53;100.00
19600;BME280;9947;57.722;12.012;2023-01-30T11:03:34;98592.03;;;4.60;100.00
19600;BME280;9947;57.722;12.012;2023-01-30T11:06:12;98588.09;;;4.64;100.00
19600;BME280;9947;57.722;12.012;2023-01-30T11:08:53;98588.22;;;4.62;100.00
19600;BME280;9947;57.722;12.012;2023-01-30T11:11:28;98588.09;;;4.64;100.00
19600;BME280;9947;57.722;12.012;2023-01-30T11:14:04;98596.72;;;4.68;100.00
19600;BME280;9947;57.722;12.012;2023-01-30T11:16:46;98598.88;;;4.74;100.00
19600;BME280;9947;57.722;12.012;2023-01-30T11:19:16;98608.19;;;4.79;100.00
19600;BME280;9947;57.722;12.012;2023-01-30T11:21:51;98605.53;;;4.79;100.00
19600;BME280;9947;57.722;12.012;2023-01-30T11:24:22;98618.91;;;4.79;100.00
19600;BME280;9947;57.722;12.012;2023-01-30T11:27:08;98614.66;;;4.77;100.00
19600;BME280;9947;57.722;12.012;2023-01-30T11:29:43;98611.56;;;4.72;100.00
19600;BME280;9947;57.722;12.012;2023-01-30T11:32:24;98610.63;;;4.61;100.00
19600;BME280;9947;57.722;12.012;2023-01-30T11:35:25;98608.94;;;4.60;100.00
19600;BME280;9947;57.722;12.012;2023-01-30T11:37:53;98621.47;;;4.60;100.00
19600;BME280;9947;57.722;12.012;2023-01-30T11:40:27;98620.63;;;4.59;100.00
19600;BME280;9947;57.722;12.012;2023-01-30T11:43:03;98616.13;;;4.60;100.00
19600;BME280;9947;57.722;12.012;2023-01-30T11:45:39;98615.13;;;4.61;100.00
19600;BME280;9947;57.722;12.012;2023-01-30T11:48:14;98607.03;;;4.72;100.00
19600;BME280;9947;57.722;12.012;2023-01-30T11:50:54;98625.06;;;4.70;100.00
19600;BME280;9947;57.722;12.012;2023-01-30T11:53:33;98620.94;;;4.66;100.00
19600;BME280;9947;57.722;12.012;2023-01-30T11:56:06;98624.44;;;4.67;100.00
19600;BME280;9947;57.722;12.012;2023-01-30T11:58:41;98643.19;;;4.67;100.00
19600;BME280;9947;57.722;12.012;2023-01-30T12:01:15;98641.50;;;4.65;100.00
19600;BME280;9947;57.722;12.012;2023-01-30T12:03:46;98646.00;;;4.65;100.00
19600;BME280;9947;57.722;12.012;2023-01-30T12:06:30;98662.66;;;4.69;100.00
19600;BME280;9947;57.722;12.012;2023-01-30T12:09:04;98648.94;;;4.62;100.00
19600;BME280;9947;57.722;12.012;2023-01-30T12:11:41;98661.03;;;4.56;100.00
19600;BME280;9947;57.722;12.012;2023-01-30T12:14:23;98676.09;;;4.57;100.00
19600;BME280;9947;57.722;12.012;2023-01-30T12:17:03;98673.69;;;4.54;100.00
19600;BME280;9947;57.722;12.012;2023-01-30T12:19:41;98669.03;;;4.56;100.00
19600;BME280;9947;57.722;12.012;2023-01-30T12:22:23;98661.03;;;4.56;100.00
19600;BME280;9947;57.722;12.012;2023-01-30T12:24:59;98668.66;;;4.61;100.00
19600;BME280;9947;57.722;12.012;2023-01-30T12:27:36;98666.97;;;4.60;100.00
19600;BME280;9947;57.722;12.012;2023-01-30T12:30:31;98662.31;;;4.62;100.00
19600;BME280;9947;57.722;12.012;2023-01-30T12:33:10;98670.22;;;4.63;100.00
19600;BME280;9947;57.722;12.012;2023-01-30T12:35:59;98666.41;;;4.66;100.00
19600;BME280;9947;57.722;12.012;2023-01-30T12:38:44;98670.56;;;4.70;100.00
19600;BME280;9947;57.722;12.012;2023-01-30T12:41:34;98683.69;;;4.73;100.00
19600;BME280;9947;57.722;12.012;2023-01-30T12:44:32;98687.78;;;4.77;100.00
19600;BME280;9947;57.722;12.012;2023-01-30T12:47:23;98692.59;;;4.83;100.00
19600;BME280;9947;57.722;12.012;2023-01-30T12:50:19;98698.41;;;4.88;100.00
19600;BME280;9947;57.722;12.012;2023-01-30T12:53:08;98700.09;;;4.89;100.00
19600;BME280;9947;57.722;12.012;2023-01-30T12:55:52;98697.66;;;4.98;100.00
19600;BME280;9947;57.722;12.012;2023-01-30T12:58:32;98704.44;;;5.02;100.00
19600;BME280;9947;57.722;12.012;2023-01-30T13:01:15;98713.03;;;5.05;100.00
19600;BME280;9947;57.722;12.012;2023-01-30T13:03:58;98708.31;;;5.18;100.00
19600;BME280;9947;57.722;12.012;2023-01-30T13:06:46;98719.75;;;5.20;100.00
19600;BME280;9947;57.722;12.012;2023-01-30T13:09:37;98712.56;;;5.21;100.00
19600;BME280;9947;57.722;12.012;2023-01-30T13:12:21;98724.72;;;5.25;100.00
19600;BME280;9947;57.722;12.012;2023-01-30T13:15:02;98741.78;;;5.24;100.00
19600;BME280;9947;57.722;12.012;2023-01-30T13:17:45;98747.72;;;5.28;100.00
19600;BME280;9947;57.722;12.012;2023-01-30T13:20:41;98751.25;;;5.28;100.00
19600;BME280;9947;57.722;12.012;2023-01-30T13:23:22;98757.44;;;5.29;100.00
19600;BME280;9947;57.722;12.012;2023-01-30T13:26:00;98772.28;;;5.33;100.00
19600;BME280;9947;57.722;12.012;2023-01-30T13:28:40;98779.19;;;5.35;100.00
19600;BME280;9947;57.722;12.012;2023-01-30T13:31:17;98778.78;;;5.40;98.92
19600;BME280;9947;57.722;12.012;2023-01-30T13:34:01;98781.06;;;5.44;97.08
19600;BME280;9947;57.722;12.012;2023-01-30T13:36:40;98794.59;;;5.43;99.06
19600;BME280;9947;57.722;12.012;2023-01-30T13:39:11;98805.59;;;5.40;100.00
19600;BME280;9947;57.722;12.012;2023-01-30T13:41:50;98815.72;;;5.36;100.00
19600;BME280;9947;57.722;12.012;2023-01-30T13:44:22;98818.25;;;5.38;99.68
19600;BME280;9947;57.722;12.012;2023-01-30T13:46:59;98833.50;;;5.37;100.00
19600;BME280;9947;57.722;12.012;2023-01-30T13:49:38;98836.03;;;5.39;97.45
19600;BME280;9947;57.722;12.012;2023-01-30T13:52:26;98840.41;;;5.40;99.35
19600;BME280;9947;57.722;12.012;2023-01-30T13:54:59;98850.69;;;5.35;100.00